Time;durP1;ratioP1;P1;durP2;ratioP2;P2;SDS_P1;SDS_P2;PMS_P1;PMS_P2;Temp;Humidity;BMP_temperature;BMP_pressure;BME280_temperature;BME280_humidity;BME280_pressure;Samples;Min_cycle;Max_cycle;Signal;HPM_P1;HPM_P2
2023/09/30 00:00:42;;;;;;;8.05;5.05;;;19.10;70.80;;;;;;5072136;28;20028;-69
2023/09/30 00:03:10;;;;;;;11.25;5.95;;;19.00;71.00;;;;;;5073296;28;20036;-69
2023/09/30 00:05:36;;;;;;;9.15;6.18;;;19.10;71.20;;;;;;5092426;28;20039;-70
2023/09/30 00:08:03;;;;;;;7.72;5.93;;;19.00;71.30;;;;;;5092551;28;20024;-70
2023/09/30 00:10:30;;;;;;;9.75;6.53;;;19.00;71.60;;;;;;5092351;28;20033;-70
2023/09/30 00:12:56;;;;;;;10.20;6.25;;;18.90;72.30;;;;;;5092742;28;20024;-70
2023/09/30 00:15:22;;;;;;;8.50;5.80;;;18.90;72.30;;;;;;5092329;28;20036;-71
2023/09/30 00:17:48;;;;;;;7.20;5.50;;;18.90;72.20;;;;;;5092692;28;20025;-69
2023/09/30 00:20:14;;;;;;;9.50;6.28;;;18.90;72.00;;;;;;5092610;28;20028;-69
2023/09/30 00:22:41;;;;;;;13.00;6.10;;;18.90;72.40;;;;;;5092226;28;20422;-68
2023/09/30 00:25:07;;;;;;;10.23;6.43;;;18.90;72.20;;;;;;5092624;28;20054;-70
2023/09/30 00:27:33;;;;;;;7.00;5.82;;;18.90;72.40;;;;;;5092473;28;20395;-70
2023/09/30 00:29:58;;;;;;;9.52;5.78;;;18.90;72.60;;;;;;5093904;28;20027;-70
2023/09/30 00:32:24;;;;;;;8.90;6.15;;;18.90;72.90;;;;;;5094900;28;20024;-71
2023/09/30 00:34:52;;;;;;;11.25;7.00;;;18.80;73.30;;;;;;5096503;28;20035;-70
2023/09/30 00:37:17;;;;;;;9.68;6.60;;;18.80;73.80;;;;;;5096325;28;20048;-70
2023/09/30 00:39:44;;;;;;;12.35;6.13;;;18.80;74.10;;;;;;5095938;28;20704;-71
2023/09/30 00:42:10;;;;;;;9.55;6.10;;;18.80;74.10;;;;;;5096203;28;20042;-70
2023/09/30 00:44:35;;;;;;;9.95;6.07;;;18.70;74.50;;;;;;5095977;28;20103;-69
2023/09/30 00:47:01;;;;;;;10.73;6.30;;;18.70;74.40;;;;;;5095877;28;20035;-70
2023/09/30 00:49:28;;;;;;;10.75;6.72;;;18.70;74.70;;;;;;5094477;28;20059;-71
2023/09/30 00:51:55;;;;;;;9.50;6.55;;;18.70;74.60;;;;;;5096190;28;20031;-70
2023/09/30 00:54:23;;;;;;;8.10;6.05;;;18.70;74.80;;;;;;5095896;28;20204;-70
2023/09/30 00:56:50;;;;;;;8.25;5.63;;;18.70;75.00;;;;;;5093981;28;20629;-70
2023/09/30 00:59:16;;;;;;;13.07;6.60;;;18.70;75.10;;;;;;5095825;28;20024;-70
2023/09/30 01:01:43;;;;;;;9.45;6.50;;;18.70;75.40;;;;;;5095502;28;20464;-70
2023/09/30 01:04:10;;;;;;;11.55;7.10;;;18.60;75.60;;;;;;5096254;28;20024;-70
2023/09/30 01:06:36;;;;;;;9.95;6.53;;;18.60;75.90;;;;;;5095599;28;20028;-69
2023/09/30 01:09:03;;;;;;;9.80;6.45;;;18.60;75.70;;;;;;5095473;28;20051;-70
2023/09/30 01:11:28;;;;;;;12.35;6.15;;;18.60;76.20;;;;;;5091701;28;20024;-69
2023/09/30 01:13:55;;;;;;;13.52;6.13;;;18.60;76.70;;;;;;5095761;28;20028;-69
2023/09/30 01:16:21;;;;;;;13.25;6.68;;;18.60;77.00;;;;;;5095738;28;20020;-69
2023/09/30 01:18:47;;;;;;;9.82;5.88;;;18.50;77.30;;;;;;5095179;28;20063;-70
2023/09/30 01:21:12;;;;;;;8.25;5.97;;;18.50;77.60;;;;;;5095337;28;20069;-69
2023/09/30 01:23:38;;;;;;;10.55;6.22;;;18.50;77.60;;;;;;5095184;28;20020;-70
2023/09/30 01:26:15;;;;;;;8.60;6.28;;;18.60;77.30;;;;;;5095475;28;20437;-70
2023/09/30 01:28:40;;;;;;;11.20;5.88;;;18.50;77.10;;;;;;5095071;28;20033;-70
2023/09/30 01:31:06;;;;;;;11.38;6.05;;;18.60;77.20;;;;;;5094132;28;20027;-71
2023/09/30 01:33:33;;;;;;;9.95;6.78;;;18.60;77.10;;;;;;5094725;28;20055;-70
2023/09/30 01:36:01;;;;;;;10.90;6.15;;;18.60;77.30;;;;;;5095337;28;20035;-70
2023/09/30 01:38:26;;;;;;;8.60;6.05;;;18.60;77.20;;;;;;5095046;28;20392;-70
2023/09/30 01:40:54;;;;;;;10.43;6.18;;;18.60;77.30;;;;;;5094331;28;20028;-70
2023/09/30 01:43:19;;;;;;;8.25;5.70;;;18.60;77.20;;;;;;5095061;28;20111;-70
2023/09/30 01:45:45;;;;;;;7.20;5.30;;;18.60;77.30;;;;;;5089613;28;20111;-70
2023/09/30 01:48:11;;;;;;;10.90;5.57;;;18.60;77.50;;;;;;5095096;28;20070;-70
2023/09/30 01:50:40;;;;;;;9.27;6.35;;;18.60;78.00;;;;;;5094693;28;20417;-70
2023/09/30 01:53:06;;;;;;;7.35;5.43;;;18.60;78.20;;;;;;5095532;28;20032;-69
2023/09/30 01:55:36;;;;;;;10.27;5.43;;;18.60;78.30;;;;;;5094530;28;20055;-70
2023/09/30 01:58:01;;;;;;;7.45;5.65;;;18.60;78.70;;;;;;5094516;28;20097;-70
2023/09/30 02:00:28;;;;;;;8.82;6.03;;;18.60;79.00;;;;;;5094864;28;20456;-70
2023/09/30 02:02:57;;;;;;;9.13;5.05;;;18.60;79.40;;;;;;5094634;28;20047;-70
2023/09/30 02:05:23;;;;;;;8.00;5.82;;;18.70;80.00;;;;;;5094609;28;20376;-69
2023/09/30 02:07:50;;;;;;;8.02;5.78;;;18.70;80.80;;;;;;5094292;28;20465;-70
2023/09/30 02:10:18;;;;;;;6.93;4.97;;;18.70;81.00;;;;;;5086477;28;20042;-69
2023/09/30 02:12:44;;;;;;;7.72;5.30;;;18.70;80.90;;;;;;5074003;28;20060;-69
2023/09/30 02:15:11;;;;;;;7.25;5.28;;;18.70;81.30;;;;;;5073046;28;20448;-70
2023/09/30 02:17:37;;;;;;;7.13;5.20;;;18.70;81.70;;;;;;5073910;28;20027;-71
2023/09/30 02:20:07;;;;;;;8.38;5.18;;;18.70;81.80;;;;;;5073916;28;20025;-70
2023/09/30 02:22:33;;;;;;;6.80;4.63;;;18.70;82.40;;;;;;5074031;28;20226;-69
2023/09/30 02:24:58;;;;;;;9.38;5.93;;;18.70;82.40;;;;;;5073812;28;20502;-69
2023/09/30 02:27:24;;;;;;;7.65;5.13;;;18.70;82.70;;;;;;5074095;28;20060;-70
2023/09/30 02:29:50;;;;;;;7.15;5.45;;;18.70;82.50;;;;;;5073684;28;20384;-70
2023/09/30 02:32:16;;;;;;;7.63;5.18;;;18.70;82.60;;;;;;5073667;28;20086;-70
2023/09/30 02:34:42;;;;;;;8.65;5.97;;;18.70;83.00;;;;;;5073591;28;20030;-70
2023/09/30 02:37:10;;;;;;;12.25;5.68;;;18.70;84.10;;;;;;5073866;28;20029;-70
2023/09/30 02:39:37;;;;;;;9.88;5.60;;;18.70;84.60;;;;;;5073434;28;20024;-71
2023/09/30 02:42:02;;;;;;;8.68;5.40;;;18.70;85.50;;;;;;5073630;28;20473;-71
2023/09/30 02:44:28;;;;;;;8.65;5.07;;;18.70;85.80;;;;;;5073702;28;20029;-70
2023/09/30 02:46:54;;;;;;;6.80;4.88;;;18.70;85.90;;;;;;5073111;28;20078;-71
2023/09/30 02:49:19;;;;;;;7.65;4.97;;;18.80;86.20;;;;;;5073322;28;20064;-70
2023/09/30 02:51:45;;;;;;;8.63;5.28;;;18.80;86.30;;;;;;5072923;28;20024;-70
2023/09/30 02:54:15;;;;;;;8.38;4.63;;;18.90;86.40;;;;;;5073141;28;20056;-70
2023/09/30 02:56:40;;;;;;;11.00;4.35;;;19.00;86.30;;;;;;5072868;28;20063;-70
2023/09/30 02:59:07;;;;;;;7.15;4.60;;;19.10;85.90;;;;;;5074082;28;20492;-70
2023/09/30 03:01:33;;;;;;;5.28;4.20;;;19.30;85.70;;;;;;5073392;28;20325;-70
2023/09/30 03:03:58;;;;;;;6.70;3.80;;;19.40;85.80;;;;;;5087464;28;20388;-70
2023/09/30 03:06:24;;;;;;;5.38;3.72;;;19.40;85.80;;;;;;5093636;28;20020;-69
2023/09/30 03:08:51;;;;;;;5.78;3.92;;;19.50;85.90;;;;;;5093040;28;20024;-70
2023/09/30 03:11:19;;;;;;;6.38;4.20;;;19.60;86.10;;;;;;5093449;28;20024;-69
2023/09/30 03:13:45;;;;;;;8.98;3.97;;;19.60;86.20;;;;;;5093085;28;20028;-71
2023/09/30 03:16:11;;;;;;;4.90;3.60;;;19.70;86.30;;;;;;5093412;28;20115;-70
2023/09/30 03:18:37;;;;;;;4.90;3.78;;;19.80;86.50;;;;;;5092739;28;20032;-70
2023/09/30 03:21:12;;;;;;;6.85;4.30;;;19.80;86.50;;;;;;5093439;28;20453;-70
2023/09/30 03:23:38;;;;;;;7.40;4.30;;;19.80;86.70;;;;;;5092834;28;20020;-70
2023/09/30 03:26:04;;;;;;;7.85;4.20;;;19.90;87.00;;;;;;5093391;28;20028;-70
2023/09/30 03:28:30;;;;;;;10.30;4.20;;;19.80;87.20;;;;;;5093279;28;20381;-70
2023/09/30 03:30:56;;;;;;;8.23;3.85;;;19.90;87.40;;;;;;5092822;28;20032;-70
2023/09/30 03:33:22;;;;;;;8.15;4.20;;;19.90;87.70;;;;;;5091878;28;20036;-70
2023/09/30 03:35:48;;;;;;;7.40;3.80;;;19.90;88.00;;;;;;5092548;28;20074;-69
2023/09/30 03:38:13;;;;;;;8.45;3.80;;;19.90;88.30;;;;;;5093019;28;20024;-70
2023/09/30 03:40:47;;;;;;;9.88;4.22;;;20.00;88.40;;;;;;5092704;28;20028;-70
2023/09/30 03:43:16;;;;;;;8.25;4.60;;;20.00;88.90;;;;;;5092848;28;20495;-70
2023/09/30 03:45:42;;;;;;;8.80;4.07;;;20.00;89.30;;;;;;5092475;28;20054;-70
2023/09/30 03:48:09;;;;;;;6.38;4.20;;;20.00;89.80;;;;;;5093011;28;20024;-69
2023/09/30 03:50:35;;;;;;;6.07;4.57;;;20.00;90.20;;;;;;5088198;28;20028;-69
2023/09/30 03:53:06;;;;;;;8.05;4.43;;;20.10;90.40;;;;;;5092136;28;20032;-69
2023/09/30 03:55:31;;;;;;;6.00;4.50;;;20.00;90.80;;;;;;5092971;28;20020;-71
2023/09/30 03:57:57;;;;;;;6.88;4.38;;;20.10;91.10;;;;;;5091976;28;20147;-70
2023/09/30 04:00:24;;;;;;;9.48;4.70;;;20.10;91.50;;;;;;5092686;28;20057;-70
2023/09/30 04:02:53;;;;;;;11.35;4.85;;;20.10;92.20;;;;;;5082071;28;20036;-70
2023/09/30 04:05:24;;;;;;;7.55;5.15;;;20.10;92.90;;;;;;5078473;28;20085;-70
2023/09/30 04:07:49;;;;;;;9.33;5.37;;;20.10;93.60;;;;;;5078888;28;20119;-70
2023/09/30 04:10:15;;;;;;;8.55;5.13;;;20.00;94.40;;;;;;5078920;28;20191;-70
2023/09/30 04:12:41;;;;;;;8.90;5.50;;;20.00;95.50;;;;;;5078461;28;20480;-71
2023/09/30 04:15:07;;;;;;;10.25;6.32;;;19.90;97.40;;;;;;5079198;28;20035;-70
2023/09/30 04:17:32;;;;;;;9.32;5.57;;;19.80;98.20;;;;;;5079076;28;20028;-70
2023/09/30 04:19:58;;;;;;;9.82;6.13;;;19.80;98.80;;;;;;5078829;28;20410;-70
2023/09/30 04:22:25;;;;;;;11.30;6.93;;;19.80;99.50;;;;;;5079028;28;20037;-71
2023/09/30 04:24:51;;;;;;;11.65;7.13;;;19.70;99.90;;;;;;5078764;28;20516;-71
2023/09/30 04:27:17;;;;;;;12.98;7.13;;;19.70;99.90;;;;;;5079224;28;20025;-70
2023/09/30 04:29:43;;;;;;;14.63;7.03;;;19.60;99.90;;;;;;5078654;28;20166;-70
2023/09/30 04:32:09;;;;;;;12.15;6.60;;;19.60;99.90;;;;;;5078681;28;20477;-70
2023/09/30 04:34:35;;;;;;;13.65;7.72;;;19.60;99.90;;;;;;5078956;28;20112;-70
2023/09/30 04:37:02;;;;;;;15.98;8.00;;;19.60;99.90;;;;;;5078481;28;20121;-70
2023/09/30 04:39:27;;;;;;;15.65;8.13;;;19.60;99.90;;;;;;5078809;28;20028;-70
2023/09/30 04:41:54;;;;;;;19.25;7.90;;;19.50;99.90;;;;;;5078610;28;20154;-70
2023/09/30 04:44:21;;;;;;;18.40;7.97;;;19.50;99.90;;;;;;5078872;28;20032;-70
2023/09/30 04:46:47;;;;;;;18.63;8.10;;;19.50;99.90;;;;;;5078526;28;20024;-72
2023/09/30 04:49:17;;;;;;;15.02;8.25;;;19.50;99.90;;;;;;5078556;28;20389;-70
2023/09/30 04:51:42;;;;;;;18.30;8.50;;;19.50;99.90;;;;;;5078453;28;20028;-71
2023/09/30 04:54:08;;;;;;;16.67;8.68;;;19.40;99.90;;;;;;5078801;28;20090;-70
2023/09/30 04:56:38;;;;;;;18.23;9.05;;;19.40;99.90;;;;;;5078695;28;20453;-70
2023/09/30 04:59:04;;;;;;;16.05;8.60;;;19.40;99.90;;;;;;5078584;28;20108;-70
2023/09/30 05:01:29;;;;;;;20.08;9.25;;;19.30;99.90;;;;;;5078709;28;20123;-70
2023/09/30 05:03:55;;;;;;;17.63;8.90;;;19.30;99.90;;;;;;5078047;28;20025;-70
2023/09/30 05:06:21;;;;;;;19.23;9.40;;;19.30;99.90;;;;;;5081536;28;20034;-70
2023/09/30 05:08:47;;;;;;;18.05;10.02;;;19.30;99.90;;;;;;5078254;28;20024;-71
2023/09/30 05:11:13;;;;;;;19.63;9.85;;;19.20;99.90;;;;;;5078571;28;20039;-71
2023/09/30 05:13:39;;;;;;;18.05;9.15;;;19.20;99.90;;;;;;5078655;28;20028;-70
2023/09/30 05:16:07;;;;;;;20.08;9.52;;;19.20;99.90;;;;;;5075414;28;20044;-71
2023/09/30 05:18:32;;;;;;;23.38;9.75;;;19.20;99.90;;;;;;5075549;28;20086;-71
2023/09/30 05:20:58;;;;;;;17.75;8.90;;;19.20;99.90;;;;;;5074698;28;20489;-70
2023/09/30 05:23:24;;;;;;;21.88;9.57;;;19.20;99.90;;;;;;5075197;28;20112;-70
2023/09/30 05:25:49;;;;;;;19.38;9.18;;;19.20;99.90;;;;;;5074856;28;20021;-71
2023/09/30 05:28:15;;;;;;;22.05;9.82;;;19.20;99.90;;;;;;5074011;28;20110;-70
2023/09/30 05:30:41;;;;;;;18.45;9.43;;;19.20;99.90;;;;;;5074064;28;20033;-70
2023/09/30 05:33:07;;;;;;;23.27;9.52;;;19.20;99.90;;;;;;5074765;28;20366;-70
2023/09/30 05:35:33;;;;;;;21.10;9.70;;;19.20;99.90;;;;;;5075053;28;20025;-70
2023/09/30 05:37:59;;;;;;;21.40;10.32;;;19.20;99.90;;;;;;5074707;28;20404;-70
2023/09/30 05:40:30;;;;;;;24.10;10.65;;;19.20;99.90;;;;;;5074987;28;20112;-70
2023/09/30 05:42:59;;;;;;;;;;;19.20;99.90;;;;;;5074913;28;20033;-70
2023/09/30 05:45:28;;;;;;;26.85;10.30;;;19.20;99.90;;;;;;5075076;28;20296;-70
2023/09/30 05:47:56;;;;;;;19.27;9.60;;;19.20;99.90;;;;;;5074264;28;20107;-70
2023/09/30 05:50:26;;;;;;;21.98;9.82;;;19.20;99.90;;;;;;5074902;28;20063;-70
2023/09/30 05:52:53;;;;;;;22.98;10.60;;;19.20;99.90;;;;;;5074695;28;20032;-70
2023/09/30 05:55:22;;;;;;;19.25;10.07;;;19.20;99.90;;;;;;5075601;28;20033;-70
2023/09/30 05:57:52;;;;;;;21.55;9.77;;;19.20;99.90;;;;;;5076971;28;20052;-71
2023/09/30 06:00:22;;;;;;;23.77;10.15;;;19.20;99.90;;;;;;5094825;28;20032;-70
2023/09/30 06:02:51;;;;;;;22.92;10.50;;;19.20;99.90;;;;;;5093265;28;20388;-70
2023/09/30 06:05:22;;;;;;;23.70;10.27;;;19.20;99.90;;;;;;5094811;28;20032;-70
2023/09/30 06:07:48;;;;;;;20.63;9.65;;;19.20;99.90;;;;;;5094329;28;20024;-71
2023/09/30 06:10:18;;;;;;;21.83;9.25;;;19.20;99.90;;;;;;5094673;28;20451;-70
2023/09/30 06:12:44;;;;;;;21.27;10.32;;;19.20;99.90;;;;;;5094757;28;20118;-70
2023/09/30 06:15:10;;;;;;;26.35;10.18;;;19.20;99.90;;;;;;5094191;28;20043;-69
2023/09/30 06:17:36;;;;;;;24.20;11.23;;;19.20;99.90;;;;;;5094522;28;20027;-69
2023/09/30 06:20:09;;;;;;;22.60;10.43;;;19.20;99.90;;;;;;5093922;28;20040;-69
2023/09/30 06:22:34;;;;;;;22.02;10.70;;;19.30;99.90;;;;;;5094135;28;20119;-69
2023/09/30 06:25:00;;;;;;;28.70;11.55;;;19.30;99.90;;;;;;5094105;28;20425;-71
2023/09/30 06:27:25;;;;;;;26.25;10.75;;;19.40;99.70;;;;;;5092898;28;20153;-70
2023/09/30 06:29:51;;;;;;;23.58;11.07;;;19.40;99.40;;;;;;5093868;28;20028;-70
2023/09/30 06:32:17;;;;;;;24.58;10.18;;;19.50;99.00;;;;;;5093953;28;20039;-70
2023/09/30 06:34:42;;;;;;;22.80;10.48;;;19.50;98.70;;;;;;5093819;28;20035;-70
2023/09/30 06:37:08;;;;;;;23.58;10.70;;;19.50;98.50;;;;;;5093412;28;20035;-69
2023/09/30 06:39:34;;;;;;;21.10;10.15;;;19.50;98.60;;;;;;5094064;28;20024;-68
2023/09/30 06:42:00;;;;;;;20.50;10.93;;;19.60;98.50;;;;;;5093626;28;20032;-70
2023/09/30 06:44:25;;;;;;;22.10;9.80;;;19.50;98.40;;;;;;5094493;28;20051;-69
2023/09/30 06:46:51;;;;;;;22.05;9.63;;;19.50;98.30;;;;;;5093719;28;20460;-70
2023/09/30 06:49:16;;;;;;;18.77;9.65;;;19.50;98.30;;;;;;5093961;28;20464;-69
2023/09/30 06:51:43;;;;;;;26.25;11.13;;;19.50;98.10;;;;;;5093939;28;20043;-70
2023/09/30 06:54:09;;;;;;;25.80;10.75;;;19.50;98.00;;;;;;5093390;28;20062;-70
2023/09/30 06:56:34;;;;;;;21.85;10.45;;;19.50;98.10;;;;;;5093604;28;20055;-70
2023/09/30 06:59:01;;;;;;;25.65;10.55;;;19.50;98.00;;;;;;5093489;28;20036;-71
2023/09/30 07:01:26;;;;;;;21.98;10.63;;;19.60;98.00;;;;;;5093625;28;20051;-71
2023/09/30 07:03:52;;;;;;;23.75;10.38;;;19.50;97.70;;;;;;5093279;28;20055;-70
2023/09/30 07:06:24;;;;;;;22.70;10.52;;;19.60;97.80;;;;;;5093563;28;20522;-70
2023/09/30 07:08:51;;;;;;;21.05;10.10;;;19.60;97.70;;;;;;5084355;28;20021;-70
2023/09/30 07:11:16;;;;;;;23.27;10.68;;;19.60;97.60;;;;;;5073416;28;20025;-70
2023/09/30 07:13:42;;;;;;;21.00;10.10;;;19.70;97.40;;;;;;5073296;28;20491;-70
2023/09/30 07:16:08;;;;;;;21.80;10.27;;;19.70;96.90;;;;;;5073677;28;20365;-70
2023/09/30 07:18:33;;;;;;;22.83;10.05;;;19.70;97.00;;;;;;5073517;28;20070;-70
2023/09/30 07:20:59;;;;;;;21.67;10.30;;;19.80;97.30;;;;;;5073199;28;20077;-70
2023/09/30 07:23:25;;;;;;;21.77;9.95;;;20.20;97.00;;;;;;5073331;28;20534;-70
2023/09/30 07:25:50;;;;;;;21.67;9.88;;;20.60;96.10;;;;;;5073209;28;20552;-70
2023/09/30 07:28:16;;;;;;;23.65;10.75;;;21.00;94.50;;;;;;5072801;28;20096;-71
2023/09/30 07:30:42;;;;;;;24.55;10.30;;;21.30;93.50;;;;;;5073132;28;20032;-70
2023/09/30 07:33:08;;;;;;;24.35;10.32;;;21.70;92.30;;;;;;5072620;28;20028;-70
2023/09/30 07:35:34;;;;;;;18.85;9.32;;;21.90;91.00;;;;;;5072896;28;20028;-69
2023/09/30 07:38:00;;;;;;;19.83;9.95;;;22.10;90.30;;;;;;5072180;28;20047;-70
2023/09/30 07:40:25;;;;;;;20.60;10.00;;;22.50;88.60;;;;;;5071288;28;20064;-69
2023/09/30 07:42:51;;;;;;;22.45;10.05;;;22.80;86.80;;;;;;5072632;28;20036;-70
2023/09/30 07:45:17;;;;;;;21.80;10.02;;;23.00;83.50;;;;;;5072394;28;20037;-69
2023/09/30 07:47:49;;;;;;;21.63;9.25;;;22.90;82.30;;;;;;5074828;28;20095;-69
2023/09/30 07:50:14;;;;;;;20.90;10.18;;;22.70;82.50;;;;;;5072179;28;20207;-69
2023/09/30 07:52:41;;;;;;;24.48;10.82;;;23.50;81.20;;;;;;5072901;28;20121;-70
2023/09/30 07:55:08;;;;;;;24.27;10.05;;;24.00;78.40;;;;;;5072294;28;20016;-70
2023/09/30 07:57:34;;;;;;;22.55;10.60;;;24.30;76.90;;;;;;5072590;28;20084;-69
2023/09/30 07:59:59;;;;;;;23.92;9.70;;;24.80;74.00;;;;;;5090136;28;20056;-69
2023/09/30 08:02:32;;;;;;;22.75;10.32;;;25.20;72.60;;;;;;5092455;28;20111;-70
2023/09/30 08:04:59;;;;;;;20.67;9.23;;;25.10;70.60;;;;;;5092241;28;20032;-70
2023/09/30 08:07:25;;;;;;;22.08;10.63;;;25.10;71.90;;;;;;5092452;28;20060;-70
2023/09/30 08:09:50;;;;;;;19.70;9.75;;;25.10;70.20;;;;;;5092612;28;20063;-70
2023/09/30 08:12:16;;;;;;;21.60;10.23;;;24.80;70.70;;;;;;5092221;28;20036;-70
2023/09/30 08:14:44;;;;;;;19.80;10.27;;;24.70;71.70;;;;;;5092495;28;20110;-70
2023/09/30 08:17:10;;;;;;;21.95;11.23;;;24.50;71.80;;;;;;5092030;28;20452;-70
2023/09/30 08:19:36;;;;;;;21.15;10.13;;;24.10;72.20;;;;;;5093014;28;20028;-70
2023/09/30 08:22:03;;;;;;;21.30;10.27;;;23.80;73.10;;;;;;5092049;28;20040;-70
2023/09/30 08:24:29;;;;;;;21.55;9.32;;;23.30;74.70;;;;;;5092494;28;20031;-69
2023/09/30 08:26:56;;;;;;;21.20;9.90;;;23.00;76.10;;;;;;5092532;28;20085;-69
2023/09/30 08:29:22;;;;;;;22.67;9.50;;;23.00;77.10;;;;;;5092563;28;20107;-69
2023/09/30 08:31:50;;;;;;;31.08;11.43;;;23.20;77.60;;;;;;5092133;28;20112;-69
2023/09/30 08:34:17;;;;;;;22.73;10.05;;;23.40;76.70;;;;;;5091727;28;20481;-71
2023/09/30 08:36:43;;;;;;;21.27;9.43;;;23.30;75.70;;;;;;5091916;28;20475;-71
2023/09/30 08:39:10;;;;;;;22.65;10.10;;;23.30;75.90;;;;;;5091943;28;20063;-69
2023/09/30 08:41:36;;;;;;;21.10;9.73;;;23.40;75.70;;;;;;5091025;28;20043;-70
2023/09/30 08:44:04;;;;;;;19.00;9.68;;;23.30;75.40;;;;;;5091705;28;20040;-70
2023/09/30 08:46:34;;;;;;;19.63;9.20;;;23.40;75.50;;;;;;5092394;28;20020;-69
2023/09/30 08:49:04;;;;;;;21.63;9.05;;;23.40;75.30;;;;;;5092054;28;20056;-70
2023/09/30 08:51:30;;;;;;;18.87;8.30;;;23.70;75.60;;;;;;5094381;28;20032;-70
2023/09/30 08:53:57;;;;;;;21.52;9.50;;;23.80;74.80;;;;;;5096188;28;20028;-70
2023/09/30 08:56:29;;;;;;;22.77;9.43;;;24.00;73.30;;;;;;5095650;28;20447;-70
2023/09/30 08:58:58;;;;;;;23.17;9.48;;;24.10;73.20;;;;;;5096093;28;20040;-70
2023/09/30 09:01:26;;;;;;;17.60;8.95;;;24.10;72.30;;;;;;5095927;28;20373;-69
2023/09/30 09:03:52;;;;;;;20.17;9.27;;;24.10;72.00;;;;;;5095967;28;20137;-69
2023/09/30 09:06:20;;;;;;;18.88;8.30;;;24.20;71.10;;;;;;5095409;28;20043;-69
2023/09/30 09:08:47;;;;;;;20.80;9.40;;;24.20;71.20;;;;;;5095944;28;20034;-69
2023/09/30 09:11:14;;;;;;;20.45;8.85;;;24.20;71.10;;;;;;5091909;28;20017;-70
2023/09/30 09:14:00;;;;;;;19.98;8.60;;;24.10;71.70;;;;;;5095720;28;20437;-69
2023/09/30 09:16:26;;;;;;;16.98;8.82;;;24.00;70.80;;;;;;5095838;28;20230;-70
2023/09/30 09:18:52;;;;;;;18.83;8.98;;;23.90;71.30;;;;;;5095489;28;20106;-70
2023/09/30 09:21:22;;;;;;;18.05;8.43;;;23.70;72.90;;;;;;5095319;28;20420;-70
2023/09/30 09:23:49;;;;;;;;;;;23.60;73.80;;;;;;5095860;28;20373;-69
2023/09/30 09:26:28;;;;;;;18.13;8.60;;;23.70;73.10;;;;;;5094688;28;20425;-70
2023/09/30 09:28:58;;;;;;;19.25;8.68;;;23.60;73.20;;;;;;5095399;28;20165;-69
2023/09/30 09:31:29;;;;;;;22.17;9.10;;;23.60;73.40;;;;;;5095068;28;20055;-68
2023/09/30 09:33:55;;;;;;;19.15;9.32;;;23.50;73.00;;;;;;5095408;28;20032;-68
2023/09/30 09:36:37;;;;;;;16.40;7.95;;;23.40;73.30;;;;;;5094676;28;20424;-68
2023/09/30 09:39:03;;;;;;;16.50;8.55;;;23.30;73.80;;;;;;5094448;28;20028;-69
2023/09/30 09:41:28;;;;;;;17.48;8.15;;;23.20;74.70;;;;;;5093662;28;20027;-68
2023/09/30 09:43:58;;;;;;;18.02;7.95;;;23.30;75.80;;;;;;5093043;28;20024;-68
2023/09/30 09:46:25;;;;;;;20.00;8.77;;;23.30;75.00;;;;;;5094434;28;20460;-69
2023/09/30 09:48:53;;;;;;;19.02;8.75;;;23.20;75.00;;;;;;5094907;28;20067;-69
2023/09/30 09:51:21;;;;;;;23.08;8.40;;;23.10;74.60;;;;;;5094605;28;20048;-68
2023/09/30 09:53:48;;;;;;;17.27;7.70;;;23.00;75.00;;;;;;5079418;28;20017;-69
2023/09/30 09:56:15;;;;;;;22.13;9.52;;;23.00;75.60;;;;;;5074315;28;20054;-69
2023/09/30 09:58:42;;;;;;;16.98;7.93;;;23.10;75.40;;;;;;5074325;28;20097;-69
2023/09/30 10:01:09;;;;;;;22.63;9.27;;;23.00;76.50;;;;;;5074106;28;20059;-68
2023/09/30 10:03:36;;;;;;;20.70;9.00;;;23.00;77.00;;;;;;5074401;28;20037;-68
2023/09/30 10:06:02;;;;;;;24.77;8.75;;;22.90;77.00;;;;;;5073290;28;20487;-68
2023/09/30 10:08:36;;;;;;;19.90;8.52;;;22.90;77.40;;;;;;5073717;28;20020;-68
2023/09/30 10:11:02;;;;;;;21.55;9.13;;;22.90;77.30;;;;;;5073605;28;20052;-69
2023/09/30 10:13:50;;;;;;;19.60;8.15;;;22.80;77.40;;;;;;5073749;28;20021;-68
2023/09/30 10:16:37;;;;;;;23.08;9.10;;;22.60;78.00;;;;;;5073971;28;20028;-68
2023/09/30 10:19:13;;;;;;;19.88;8.75;;;22.60;78.80;;;;;;5073609;28;20522;-68
2023/09/30 10:21:39;;;;;;;21.15;8.70;;;22.60;78.50;;;;;;5074462;28;20070;-69
2023/09/30 10:24:23;;;;;;;20.05;9.20;;;22.50;79.20;;;;;;5074112;28;20056;-71
2023/09/30 10:27:32;;;;;;;27.27;9.75;;;22.50;79.20;;;;;;5074363;28;20123;-69
2023/09/30 10:30:01;;;;;;;23.23;8.85;;;22.40;79.40;;;;;;5074168;28;20082;-69
2023/09/30 10:32:52;;;;;;;23.58;8.75;;;22.40;79.50;;;;;;5073670;28;20035;-69
2023/09/30 10:35:18;;;;;;;18.63;8.45;;;22.30;80.10;;;;;;5073546;28;20111;-68
2023/09/30 10:37:44;;;;;;;19.08;8.43;;;22.20;80.70;;;;;;5074177;28;20067;-69
2023/09/30 10:40:26;;;;;;;22.35;8.75;;;22.10;81.30;;;;;;5073574;28;20033;-68
2023/09/30 10:42:54;;;;;;;18.33;8.23;;;22.10;81.80;;;;;;5073698;28;20045;-69
2023/09/30 10:45:38;;;;;;;19.58;8.27;;;22.20;81.40;;;;;;5073280;28;20027;-70
2023/09/30 10:48:30;;;;;;;25.35;8.60;;;22.10;81.40;;;;;;5073609;28;20024;-69
2023/09/30 10:51:00;;;;;;;19.23;8.73;;;22.10;82.20;;;;;;5073809;28;20453;-69
2023/09/30 10:53:27;;;;;;;18.85;8.45;;;22.10;82.00;;;;;;5073067;28;20070;-69
2023/09/30 10:56:00;;;;;;;22.15;9.27;;;22.10;82.20;;;;;;5073186;28;20103;-69
2023/09/30 10:58:45;;;;;;;20.33;8.82;;;22.10;82.30;;;;;;5072720;28;20098;-69
2023/09/30 11:01:13;;;;;;;17.67;7.70;;;22.10;81.80;;;;;;5072884;28;20078;-70
2023/09/30 11:03:40;;;;;;;17.55;8.10;;;22.10;81.60;;;;;;5073283;28;20154;-69
2023/09/30 11:06:06;;;;;;;16.40;6.85;;;22.20;81.10;;;;;;5073213;28;20063;-69
2023/09/30 11:08:33;;;;;;;15.65;7.43;;;22.30;80.80;;;;;;5072489;28;20056;-69
2023/09/30 11:11:00;;;;;;;17.10;7.57;;;22.60;80.40;;;;;;5073261;28;20039;-69
2023/09/30 11:13:35;;;;;;;16.55;7.22;;;22.70;80.40;;;;;;5070846;28;20051;-69
2023/09/30 11:16:02;;;;;;;19.23;7.97;;;22.90;78.40;;;;;;5075540;28;20025;-69
2023/09/30 11:18:29;;;;;;;16.48;7.38;;;22.90;79.40;;;;;;5072487;28;20020;-70
2023/09/30 11:21:04;;;;;;;20.10;8.35;;;22.90;78.80;;;;;;5073048;28;20150;-69
2023/09/30 11:23:30;;;;;;;15.25;7.50;;;22.90;77.50;;;;;;5072737;28;20033;-68
2023/09/30 11:25:56;;;;;;;19.92;7.63;;;22.80;77.50;;;;;;5072909;28;20040;-68
2023/09/30 11:28:25;;;;;;;15.60;7.35;;;22.80;78.00;;;;;;5072156;28;20032;-69
2023/09/30 11:30:56;;;;;;;16.20;7.82;;;22.70;78.40;;;;;;5072931;28;20490;-68
2023/09/30 11:33:25;;;;;;;16.67;7.75;;;22.70;79.40;;;;;;5072609;28;20055;-67
2023/09/30 11:36:05;;;;;;;16.15;7.38;;;22.70;79.10;;;;;;5072856;28;20032;-68
2023/09/30 11:38:32;;;;;;;14.65;7.03;;;22.60;78.10;;;;;;5072344;28;20356;-69
2023/09/30 11:41:07;;;;;;;16.58;7.38;;;22.60;78.70;;;;;;5075050;28;20082;-69
2023/09/30 11:43:34;;;;;;;18.85;7.95;;;22.60;78.10;;;;;;5072032;28;20032;-68
2023/09/30 11:46:10;;;;;;;17.13;8.20;;;22.60;78.00;;;;;;5082835;28;20103;-67
2023/09/30 11:48:37;;;;;;;18.95;7.53;;;22.50;78.80;;;;;;5093060;28;20473;-68
2023/09/30 11:51:03;;;;;;;19.00;8.45;;;22.40;79.40;;;;;;5093168;28;20024;-68
2023/09/30 11:53:35;;;;;;;15.02;7.72;;;22.30;80.10;;;;;;5092435;28;20032;-68
2023/09/30 11:56:02;;;;;;;21.13;8.43;;;22.30;80.90;;;;;;5093073;28;20020;-68
2023/09/30 11:58:32;;;;;;;16.60;7.40;;;22.30;80.50;;;;;;5092589;28;20052;-69
2023/09/30 12:00:59;;;;;;;17.67;7.43;;;22.40;80.30;;;;;;5092999;28;20050;-69
2023/09/30 12:03:27;;;;;;;19.40;8.15;;;22.40;80.10;;;;;;5092204;28;20085;-68
2023/09/30 12:05:57;;;;;;;14.60;8.15;;;22.40;79.90;;;;;;5092388;28;20549;-68
2023/09/30 12:08:23;;;;;;;16.25;7.95;;;22.30;79.80;;;;;;5092597;28;20027;-68
2023/09/30 12:10:49;;;;;;;20.85;8.50;;;22.40;80.30;;;;;;5092932;28;20024;-69
2023/09/30 12:13:15;;;;;;;16.75;8.45;;;22.30;80.70;;;;;;5092243;28;20032;-71
2023/09/30 12:15:42;;;;;;;16.88;7.55;;;22.40;80.20;;;;;;5092655;28;20039;-68
2023/09/30 12:18:10;;;;;;;17.05;7.68;;;22.40;80.00;;;;;;5092633;28;20024;-68
2023/09/30 12:20:36;;;;;;;17.13;7.60;;;22.40;79.70;;;;;;5091878;28;20488;-68
2023/09/30 12:23:01;;;;;;;15.95;7.65;;;22.40;80.10;;;;;;5092580;28;20054;-68
2023/09/30 12:25:28;;;;;;;19.52;8.07;;;22.40;79.60;;;;;;5094657;28;20024;-68
2023/09/30 12:27:55;;;;;;;16.50;8.32;;;22.40;79.90;;;;;;5096451;28;20031;-69
2023/09/30 12:30:21;;;;;;;18.63;8.40;;;22.50;79.80;;;;;;5095997;28;20488;-69
2023/09/30 12:32:46;;;;;;;18.58;8.43;;;22.50;79.40;;;;;;5096543;28;20032;-68
2023/09/30 12:35:12;;;;;;;18.13;7.90;;;22.50;78.70;;;;;;5096300;28;20043;-68
2023/09/30 12:37:38;;;;;;;16.83;7.40;;;22.50;78.90;;;;;;5096075;28;20023;-69
2023/09/30 12:40:07;;;;;;;14.60;6.97;;;22.50;79.40;;;;;;5096274;28;20028;-68